sensor_id;sensor_type;location;lat;lon;timestamp;pressure;altitude;pressure_sealevel;temperature;humidity
16255;BME280;8235;52.198;9.904;2023-10-31T00:02:13;98709.06;;;12.40;100.00
16255;BME280;8235;52.198;9.904;2023-10-31T00:04:40;98704.72;;;12.39;100.00
16255;BME280;8235;52.198;9.904;2023-10-31T00:07:06;98706.53;;;12.39;100.00
16255;BME280;8235;52.198;9.904;2023-10-31T00:09:34;98705.84;;;12.37;100.00
16255;BME280;8235;52.198;9.904;2023-10-31T00:12:00;98711.88;;;12.39;100.00
16255;BME280;8235;52.198;9.904;2023-10-31T00:14:27;98705.69;;;12.38;100.00
16255;BME280;8235;52.198;9.904;2023-10-31T00:16:53;98706.53;;;12.39;100.00
16255;BME280;8235;52.198;9.904;2023-10-31T00:19:20;98700.34;;;12.38;100.00
16255;BME280;8235;52.198;9.904;2023-10-31T00:21:46;98695.16;;;12.37;100.00
16255;BME280;8235;52.198;9.904;2023-10-31T00:24:13;98700.69;;;12.35;100.00
16255;BME280;8235;52.198;9.904;2023-10-31T00:26:40;98705.19;;;12.35;100.00
16255;BME280;8235;52.198;9.904;2023-10-31T00:29:07;98703.66;;;12.32;100.00
16255;BME280;8235;52.198;9.904;2023-10-31T00:31:33;98700.69;;;12.35;100.00
16255;BME280;8235;52.198;9.904;2023-10-31T00:34:00;98704.34;;;12.34;100.00
16255;BME280;8235;52.198;9.904;2023-10-31T00:36:27;98709.69;;;12.34;100.00
16255;BME280;8235;52.198;9.904;2023-10-31T00:38:53;98705.19;;;12.35;100.00
16255;BME280;8235;52.198;9.904;2023-10-31T00:41:19;98698.19;;;12.34;100.00
16255;BME280;8235;52.198;9.904;2023-10-31T00:43:47;98709.84;;;12.33;100.00
16255;BME280;8235;52.198;9.904;2023-10-31T00:46:14;98706.34;;;12.32;100.00
16255;BME280;8235;52.198;9.904;2023-10-31T00:48:40;98708.31;;;12.30;100.00
16255;BME280;8235;52.198;9.904;2023-10-31T00:51:07;98705.66;;;12.30;100.00
16255;BME280;8235;52.198;9.904;2023-10-31T00:53:33;98707.47;;;12.30;100.00
16255;BME280;8235;52.198;9.904;2023-10-31T00:56:00;98708.31;;;12.30;100.00
16255;BME280;8235;52.198;9.904;2023-10-31T00:58:26;98719.84;;;12.31;100.00
16255;BME280;8235;52.198;9.904;2023-10-31T01:00:54;98711.00;;;12.30;100.00
16255;BME280;8235;52.198;9.904;2023-10-31T01:03:20;98705.81;;;12.29;100.00
16255;BME280;8235;52.198;9.904;2023-10-31T01:05:47;98707.47;;;12.30;100.00
16255;BME280;8235;52.198;9.904;2023-10-31T01:08:13;98697.81;;;12.29;100.00
16255;BME280;8235;52.198;9.904;2023-10-31T01:10:40;98694.28;;;12.28;100.00
16255;BME280;8235;52.198;9.904;2023-10-31T01:13:06;98683.63;;;12.28;100.00
16255;BME280;8235;52.198;9.904;2023-10-31T01:15:33;98679.13;;;12.29;100.00
16255;BME280;8235;52.198;9.904;2023-10-31T01:18:01;98672.94;;;12.28;100.00
16255;BME280;8235;52.198;9.904;2023-10-31T01:20:27;98674.63;;;12.29;100.00
16255;BME280;8235;52.198;9.904;2023-10-31T01:22:53;98685.59;;;12.26;100.00
16255;BME280;8235;52.198;9.904;2023-10-31T01:25:20;98669.59;;;12.26;100.00
16255;BME280;8235;52.198;9.904;2023-10-31T01:27:46;98675.47;;;12.30;100.00
16255;BME280;8235;52.198;9.904;2023-10-31T01:30:13;98676.97;;;12.32;100.00
16255;BME280;8235;52.198;9.904;2023-10-31T01:32:39;98674.31;;;12.32;100.00
16255;BME280;8235;52.198;9.904;2023-10-31T01:35:08;98683.31;;;12.31;100.00
16255;BME280;8235;52.198;9.904;2023-10-31T01:37:34;98674.31;;;12.32;100.00
16255;BME280;8235;52.198;9.904;2023-10-31T01:40:01;98677.66;;;12.34;100.00
16255;BME280;8235;52.198;9.904;2023-10-31T01:42:27;98673.16;;;12.35;100.00
16255;BME280;8235;52.198;9.904;2023-10-31T01:44:54;98666.16;;;12.34;100.00
16255;BME280;8235;52.198;9.904;2023-10-31T01:47:20;98668.66;;;12.35;100.00
16255;BME280;8235;52.198;9.904;2023-10-31T01:49:49;98656.31;;;12.34;100.00
16255;BME280;8235;52.198;9.904;2023-10-31T01:52:17;98648.47;;;12.33;100.00
16255;BME280;8235;52.198;9.904;2023-10-31T01:54:44;98650.97;;;12.34;100.00
16255;BME280;8235;52.198;9.904;2023-10-31T01:57:11;98645.63;;;12.34;100.00
16255;BME280;8235;52.198;9.904;2023-10-31T01:59:36;98647.47;;;12.34;100.00
16255;BME280;8235;52.198;9.904;2023-10-31T02:02:03;98647.47;;;12.34;100.00
16255;BME280;8235;52.198;9.904;2023-10-31T02:04:31;98645.63;;;12.34;100.00
16255;BME280;8235;52.198;9.904;2023-10-31T02:06:57;98641.28;;;12.33;100.00
16255;BME280;8235;52.198;9.904;2023-10-31T02:09:25;98629.63;;;12.34;100.00
16255;BME280;8235;52.198;9.904;2023-10-31T02:11:54;98628.78;;;12.34;100.00
16255;BME280;8235;52.198;9.904;2023-10-31T02:14:21;98625.94;;;12.35;100.00
16255;BME280;8235;52.198;9.904;2023-10-31T02:16:48;98619.59;;;12.36;100.00
16255;BME280;8235;52.198;9.904;2023-10-31T02:19:18;98622.78;;;12.40;100.00
16255;BME280;8235;52.198;9.904;2023-10-31T02:21:46;98628.50;;;12.45;100.00
16255;BME280;8235;52.198;9.904;2023-10-31T02:24:13;98629.72;;;12.50;100.00
16255;BME280;8235;52.198;9.904;2023-10-31T02:26:39;98630.41;;;12.52;100.00
16255;BME280;8235;52.198;9.904;2023-10-31T02:29:06;98630.41;;;12.52;100.00
16255;BME280;8235;52.198;9.904;2023-10-31T02:31:32;98623.22;;;12.53;100.00
16255;BME280;8235;52.198;9.904;2023-10-31T02:33:59;98622.88;;;12.56;100.00
16255;BME280;8235;52.198;9.904;2023-10-31T02:36:25;98621.38;;;12.54;100.00
16255;BME280;8235;52.198;9.904;2023-10-31T02:38:53;98616.69;;;12.56;100.00
16255;BME280;8235;52.198;9.904;2023-10-31T02:41:19;98615.84;;;12.55;100.00
16255;BME280;8235;52.198;9.904;2023-10-31T02:43:46;98604.34;;;12.55;100.00
16255;BME280;8235;52.198;9.904;2023-10-31T02:46:13;98606.03;;;12.56;100.00
16255;BME280;8235;52.198;9.904;2023-10-31T02:48:40;98597.00;;;12.57;100.00
16255;BME280;8235;52.198;9.904;2023-10-31T02:51:07;98595.88;;;12.59;100.00
16255;BME280;8235;52.198;9.904;2023-10-31T02:53:34;98598.53;;;12.59;100.00
16255;BME280;8235;52.198;9.904;2023-10-31T02:56:02;98606.06;;;12.64;100.00
16255;BME280;8235;52.198;9.904;2023-10-31T02:58:29;98600.88;;;12.62;100.00
16255;BME280;8235;52.198;9.904;2023-10-31T03:00:55;98608.59;;;12.65;100.00
16255;BME280;8235;52.198;9.904;2023-10-31T03:03:22;98601.56;;;12.64;100.00
16255;BME280;8235;52.198;9.904;2023-10-31T03:05:48;98602.25;;;12.66;100.00
16255;BME280;8235;52.198;9.904;2023-10-31T03:08:15;98607.28;;;12.69;100.00
16255;BME280;8235;52.198;9.904;2023-10-31T03:10:46;98607.97;;;12.71;100.00
16255;BME280;8235;52.198;9.904;2023-10-31T03:13:16;98606.13;;;12.72;100.00
16255;BME280;8235;52.198;9.904;2023-10-31T03:15:43;98612.78;;;12.76;100.00
16255;BME280;8235;52.198;9.904;2023-10-31T03:18:09;98610.28;;;12.74;100.00
16255;BME280;8235;52.198;9.904;2023-10-31T03:20:39;98620.97;;;12.74;100.00
16255;BME280;8235;52.198;9.904;2023-10-31T03:23:06;98632.00;;;12.79;100.00
16255;BME280;8235;52.198;9.904;2023-10-31T03:25:32;98621.31;;;12.79;100.00
16255;BME280;8235;52.198;9.904;2023-10-31T03:27:59;98626.47;;;12.73;100.00
16255;BME280;8235;52.198;9.904;2023-10-31T03:30:27;98624.59;;;12.65;100.00
16255;BME280;8235;52.198;9.904;2023-10-31T03:32:53;98620.06;;;12.58;100.00
16255;BME280;8235;52.198;9.904;2023-10-31T03:35:19;98647.19;;;12.45;97.55
16255;BME280;8235;52.198;9.904;2023-10-31T03:37:46;98648.16;;;12.36;97.28
16255;BME280;8235;52.198;9.904;2023-10-31T03:40:12;98652.13;;;12.32;96.98
16255;BME280;8235;52.198;9.904;2023-10-31T03:42:39;98663.41;;;12.26;95.05
16255;BME280;8235;52.198;9.904;2023-10-31T03:45:06;98671.19;;;12.19;94.42
16255;BME280;8235;52.198;9.904;2023-10-31T03:47:34;98677.47;;;12.10;94.16
16255;BME280;8235;52.198;9.904;2023-10-31T03:50:01;98667.25;;;12.05;94.35
16255;BME280;8235;52.198;9.904;2023-10-31T03:52:28;98669.38;;;12.02;94.41
16255;BME280;8235;52.198;9.904;2023-10-31T03:54:55;98667.34;;;11.96;94.09
16255;BME280;8235;52.198;9.904;2023-10-31T03:57:21;98669.63;;;11.91;94.22
16255;BME280;8235;52.198;9.904;2023-10-31T03:59:48;98665.44;;;11.88;94.22
16255;BME280;8235;52.198;9.904;2023-10-31T04:02:14;98663.91;;;11.86;94.78
16255;BME280;8235;52.198;9.904;2023-10-31T04:04:42;98663.22;;;11.83;94.53
16255;BME280;8235;52.198;9.904;2023-10-31T04:07:08;98670.56;;;11.81;93.99
16255;BME280;8235;52.198;9.904;2023-10-31T04:09:35;98660.91;;;11.80;92.83
16255;BME280;8235;52.198;9.904;2023-10-31T04:12:01;98677.34;;;11.76;92.21
16255;BME280;8235;52.198;9.904;2023-10-31T04:14:28;98692.63;;;11.74;91.16
16255;BME280;8235;52.198;9.904;2023-10-31T04:16:54;98682.25;;;11.71;90.15
16255;BME280;8235;52.198;9.904;2023-10-31T04:19:21;98693.06;;;11.69;90.19
16255;BME280;8235;52.198;9.904;2023-10-31T04:21:48;98702.34;;;11.65;90.74
16255;BME280;8235;52.198;9.904;2023-10-31T04:24:15;98715.19;;;11.62;91.22
16255;BME280;8235;52.198;9.904;2023-10-31T04:26:41;98711.81;;;11.60;92.08
16255;BME280;8235;52.198;9.904;2023-10-31T04:29:08;98714.50;;;11.60;92.99
16255;BME280;8235;52.198;9.904;2023-10-31T04:31:34;98711.69;;;11.61;93.19
16255;BME280;8235;52.198;9.904;2023-10-31T04:34:01;98729.34;;;11.62;92.70
16255;BME280;8235;52.198;9.904;2023-10-31T04:36:27;98733.69;;;11.63;93.20
16255;BME280;8235;52.198;9.904;2023-10-31T04:38:55;98747.03;;;11.63;92.96
16255;BME280;8235;52.198;9.904;2023-10-31T04:41:21;98753.34;;;11.62;92.30
16255;BME280;8235;52.198;9.904;2023-10-31T04:43:48;98747.31;;;11.60;89.95
16255;BME280;8235;52.198;9.904;2023-10-31T04:46:14;98752.41;;;11.54;90.03
16255;BME280;8235;52.198;9.904;2023-10-31T04:48:41;98747.06;;;11.54;89.24
16255;BME280;8235;52.198;9.904;2023-10-31T04:51:08;98747.91;;;11.54;88.88
16255;BME280;8235;52.198;9.904;2023-10-31T04:53:34;98745.38;;;11.53;88.96
16255;BME280;8235;52.198;9.904;2023-10-31T04:56:03;98742.72;;;11.53;88.51
16255;BME280;8235;52.198;9.904;2023-10-31T04:58:29;98750.03;;;11.51;88.70
16255;BME280;8235;52.198;9.904;2023-10-31T05:00:56;98753.81;;;11.48;89.07
16255;BME280;8235;52.198;9.904;2023-10-31T05:03:22;98757.47;;;11.47;88.65
16255;BME280;8235;52.198;9.904;2023-10-31T05:05:48;98754.16;;;11.45;86.78
16255;BME280;8235;52.198;9.904;2023-10-31T05:08:15;98754.03;;;11.37;86.24
16255;BME280;8235;52.198;9.904;2023-10-31T05:10:41;98755.16;;;11.34;86.14
16255;BME280;8235;52.198;9.904;2023-10-31T05:13:09;98771.72;;;11.38;85.20
16255;BME280;8235;52.198;9.904;2023-10-31T05:15:36;98762.31;;;11.34;84.43
16255;BME280;8235;52.198;9.904;2023-10-31T05:18:02;98771.59;;;11.30;84.80
16255;BME280;8235;52.198;9.904;2023-10-31T05:20:29;98768.56;;;11.25;84.41
16255;BME280;8235;52.198;9.904;2023-10-31T05:22:55;98760.72;;;11.23;83.83
16255;BME280;8235;52.198;9.904;2023-10-31T05:25:22;98757.63;;;11.18;83.77
16255;BME280;8235;52.198;9.904;2023-10-31T05:27:48;98763.09;;;11.17;84.29
16255;BME280;8235;52.198;9.904;2023-10-31T05:30:16;98760.72;;;11.13;84.67
16255;BME280;8235;52.198;9.904;2023-10-31T05:32:42;98772.38;;;11.12;85.41
16255;BME280;8235;52.198;9.904;2023-10-31T05:35:10;98782.38;;;11.10;85.97
16255;BME280;8235;52.198;9.904;2023-10-31T05:37:36;98773.66;;;11.08;86.65
16255;BME280;8235;52.198;9.904;2023-10-31T05:40:03;98784.19;;;11.10;87.23
16255;BME280;8235;52.198;9.904;2023-10-31T05:42:30;98775.34;;;11.09;87.77
16255;BME280;8235;52.198;9.904;2023-10-31T05:44:56;98780.81;;;11.08;88.01
16255;BME280;8235;52.198;9.904;2023-10-31T05:47:24;98782.50;;;11.09;88.13
16255;BME280;8235;52.198;9.904;2023-10-31T05:49:50;98788.81;;;11.08;87.13
16255;BME280;8235;52.198;9.904;2023-10-31T05:52:17;98791.63;;;11.06;87.17
16255;BME280;8235;52.198;9.904;2023-10-31T05:54:43;98795.56;;;11.02;87.10
16255;BME280;8235;52.198;9.904;2023-10-31T05:57:10;98805.66;;;10.99;87.05
16255;BME280;8235;52.198;9.904;2023-10-31T05:59:36;98819.81;;;10.99;87.02
16255;BME280;8235;52.198;9.904;2023-10-31T06:02:03;98815.75;;;10.95;86.99
16255;BME280;8235;52.198;9.904;2023-10-31T06:04:31;98824.88;;;10.93;87.36
16255;BME280;8235;52.198;9.904;2023-10-31T06:06:57;98829.53;;;10.91;87.67
16255;BME280;8235;52.198;9.904;2023-10-31T06:09:24;98830.38;;;10.91;87.44
16255;BME280;8235;52.198;9.904;2023-10-31T06:11:50;98835.97;;;10.88;87.39
16255;BME280;8235;52.198;9.904;2023-10-31T06:14:17;98834.44;;;10.86;87.46
16255;BME280;8235;52.198;9.904;2023-10-31T06:16:43;98831.22;;;10.82;87.54
16255;BME280;8235;52.198;9.904;2023-10-31T06:19:10;98838.34;;;10.82;87.87
16255;BME280;8235;52.198;9.904;2023-10-31T06:21:38;98843.81;;;10.80;88.07
16255;BME280;8235;52.198;9.904;2023-10-31T06:24:06;98840.44;;;10.78;88.33
16255;BME280;8235;52.198;9.904;2023-10-31T06:26:33;98848.44;;;10.78;88.11
16255;BME280;8235;52.198;9.904;2023-10-31T06:28:59;98847.75;;;10.76;87.89
16255;BME280;8235;52.198;9.904;2023-10-31T06:31:26;98836.41;;;10.74;88.01
16255;BME280;8235;52.198;9.904;2023-10-31T06:33:52;98854.50;;;10.70;88.20
16255;BME280;8235;52.198;9.904;2023-10-31T06:36:19;98851.69;;;10.72;88.11
16255;BME280;8235;52.198;9.904;2023-10-31T06:38:46;98854.63;;;10.69;88.27
16255;BME280;8235;52.198;9.904;2023-10-31T06:41:13;98855.88;;;10.65;88.29
16255;BME280;8235;52.198;9.904;2023-10-31T06:43:40;98862.06;;;10.65;88.32
16255;BME280;8235;52.198;9.904;2023-10-31T06:46:06;98865.41;;;10.67;88.16
16255;BME280;8235;52.198;9.904;2023-10-31T06:48:33;98863.88;;;10.65;88.42
16255;BME280;8235;52.198;9.904;2023-10-31T06:51:00;98870.88;;;10.66;88.50
16255;BME280;8235;52.198;9.904;2023-10-31T06:53:26;98875.78;;;10.70;88.68
16255;BME280;8235;52.198;9.904;2023-10-31T06:55:54;98870.47;;;10.70;89.14
16255;BME280;8235;52.198;9.904;2023-10-31T06:58:20;98882.81;;;10.71;89.43
16255;BME280;8235;52.198;9.904;2023-10-31T07:00:47;98891.31;;;10.75;89.66
16255;BME280;8235;52.198;9.904;2023-10-31T07:03:13;98893.00;;;10.76;90.10
16255;BME280;8235;52.198;9.904;2023-10-31T07:05:40;98890.06;;;10.79;90.43
16255;BME280;8235;52.198;9.904;2023-10-31T07:08:07;98890.78;;;10.81;90.69
16255;BME280;8235;52.198;9.904;2023-10-31T07:10:33;98888.09;;;10.81;90.98
16255;BME280;8235;52.198;9.904;2023-10-31T07:13:01;98892.72;;;10.79;91.54
16255;BME280;8235;52.198;9.904;2023-10-31T07:15:28;98897.78;;;10.82;92.17
16255;BME280;8235;52.198;9.904;2023-10-31T07:17:54;98884.47;;;10.82;92.32
16255;BME280;8235;52.198;9.904;2023-10-31T07:20:21;98889.66;;;10.84;92.78
16255;BME280;8235;52.198;9.904;2023-10-31T07:22:47;98899.47;;;10.83;93.27
16255;BME280;8235;52.198;9.904;2023-10-31T07:25:14;98897.50;;;10.85;93.18
16255;BME280;8235;52.198;9.904;2023-10-31T07:27:40;98897.50;;;10.85;93.05
16255;BME280;8235;52.198;9.904;2023-10-31T07:30:09;98895.81;;;10.84;93.76
16255;BME280;8235;52.198;9.904;2023-10-31T07:32:35;98898.47;;;10.84;94.27
16255;BME280;8235;52.198;9.904;2023-10-31T07:35:02;98898.34;;;10.86;94.58
16255;BME280;8235;52.198;9.904;2023-10-31T07:37:29;98898.34;;;10.86;94.99
16255;BME280;8235;52.198;9.904;2023-10-31T07:39:55;98899.19;;;10.86;95.09
16255;BME280;8235;52.198;9.904;2023-10-31T07:42:21;98898.78;;;10.91;95.24
16255;BME280;8235;52.198;9.904;2023-10-31T07:44:48;98895.13;;;10.92;95.37
16255;BME280;8235;52.198;9.904;2023-10-31T07:47:17;98893.44;;;10.91;95.44
16255;BME280;8235;52.198;9.904;2023-10-31T07:49:43;98899.31;;;10.94;95.42
16255;BME280;8235;52.198;9.904;2023-10-31T07:52:10;98896.34;;;10.97;95.60
16255;BME280;8235;52.198;9.904;2023-10-31T07:54:38;98892.44;;;11.01;95.00
16255;BME280;8235;52.198;9.904;2023-10-31T07:57:05;98900.16;;;11.04;94.52
16255;BME280;8235;52.198;9.904;2023-10-31T07:59:33;98902.09;;;11.02;93.82
16255;BME280;8235;52.198;9.904;2023-10-31T08:01:59;98894.13;;;11.02;94.25
16255;BME280;8235;52.198;9.904;2023-10-31T08:04:27;98906.59;;;11.02;94.27
16255;BME280;8235;52.198;9.904;2023-10-31T08:06:55;98900.16;;;11.04;94.38
16255;BME280;8235;52.198;9.904;2023-10-31T08:09:21;98900.28;;;11.03;94.54
16255;BME280;8235;52.198;9.904;2023-10-31T08:11:48;98900.72;;;11.08;94.52
16255;BME280;8235;52.198;9.904;2023-10-31T08:14:14;98908.00;;;11.06;93.99
16255;BME280;8235;52.198;9.904;2023-10-31T08:16:41;98915.16;;;11.05;95.21
16255;BME280;8235;52.198;9.904;2023-10-31T08:19:07;98926.22;;;11.10;96.05
16255;BME280;8235;52.198;9.904;2023-10-31T08:21:35;98923.41;;;11.12;96.23
16255;BME280;8235;52.198;9.904;2023-10-31T08:24:04;98928.44;;;11.15;96.54
16255;BME280;8235;52.198;9.904;2023-10-31T08:26:31;98952.41;;;11.15;96.59
16255;BME280;8235;52.198;9.904;2023-10-31T08:28:58;98962.81;;;11.08;97.10
16255;BME280;8235;52.198;9.904;2023-10-31T08:31:24;98971.78;;;11.07;98.95
16255;BME280;8235;52.198;9.904;2023-10-31T08:33:51;98972.78;;;11.06;100.00
16255;BME280;8235;52.198;9.904;2023-10-31T08:36:17;98978.38;;;11.03;100.00
16255;BME280;8235;52.198;9.904;2023-10-31T08:38:45;98983.97;;;11.00;100.00
16255;BME280;8235;52.198;9.904;2023-10-31T08:41:12;98975.00;;;11.01;100.00
16255;BME280;8235;52.198;9.904;2023-10-31T08:43:47;98983.56;;;10.95;100.00
16255;BME280;8235;52.198;9.904;2023-10-31T08:46:13;98998.00;;;10.93;100.00
16255;BME280;8235;52.198;9.904;2023-10-31T08:48:40;98997.19;;;10.92;100.00
16255;BME280;8235;52.198;9.904;2023-10-31T08:51:06;99007.13;;;10.90;99.48
16255;BME280;8235;52.198;9.904;2023-10-31T08:53:33;99010.06;;;10.87;99.67
16255;BME280;8235;52.198;9.904;2023-10-31T08:56:00;98998.69;;;10.85;99.58
16255;BME280;8235;52.198;9.904;2023-10-31T08:58:27;99001.50;;;10.84;99.22
16255;BME280;8235;52.198;9.904;2023-10-31T09:00:54;98998.00;;;10.83;98.14
16255;BME280;8235;52.198;9.904;2023-10-31T09:03:21;99008.91;;;10.80;97.03
16255;BME280;8235;52.198;9.904;2023-10-31T09:05:47;99010.88;;;10.78;96.25
16255;BME280;8235;52.198;9.904;2023-10-31T09:08:14;99016.78;;;10.82;95.71
16255;BME280;8235;52.198;9.904;2023-10-31T09:10:40;99019.88;;;10.87;95.91
16255;BME280;8235;52.198;9.904;2023-10-31T09:13:09;99030.53;;;10.96;96.04
16255;BME280;8235;52.198;9.904;2023-10-31T09:15:36;99032.50;;;11.04;95.03
16255;BME280;8235;52.198;9.904;2023-10-31T09:18:02;99038.94;;;11.11;94.77
16255;BME280;8235;52.198;9.904;2023-10-31T09:20:29;99041.75;;;11.19;93.70
16255;BME280;8235;52.198;9.904;2023-10-31T09:22:55;99055.25;;;11.27;93.01
16255;BME280;8235;52.198;9.904;2023-10-31T09:25:22;99054.25;;;11.28;92.15
16255;BME280;8235;52.198;9.904;2023-10-31T09:27:48;99052.97;;;11.32;92.46
16255;BME280;8235;52.198;9.904;2023-10-31T09:30:16;99061.81;;;11.33;90.63
16255;BME280;8235;52.198;9.904;2023-10-31T09:32:43;99067.56;;;11.38;90.16
16255;BME280;8235;52.198;9.904;2023-10-31T09:35:09;99072.34;;;11.44;90.56
16255;BME280;8235;52.198;9.904;2023-10-31T09:37:36;99067.03;;;11.44;89.82
16255;BME280;8235;52.198;9.904;2023-10-31T09:40:04;99069.38;;;11.47;89.99
16255;BME280;8235;52.198;9.904;2023-10-31T09:42:31;99074.16;;;11.53;90.42
16255;BME280;8235;52.198;9.904;2023-10-31T09:44:57;99077.09;;;11.60;90.49
16255;BME280;8235;52.198;9.904;2023-10-31T09:47:25;99068.69;;;11.64;90.13
16255;BME280;8235;52.198;9.904;2023-10-31T09:49:52;99078.06;;;11.68;89.55
16255;BME280;8235;52.198;9.904;2023-10-31T09:52:19;99083.81;;;11.73;88.68
16255;BME280;8235;52.198;9.904;2023-10-31T09:54:47;99085.25;;;11.77;88.30
16255;BME280;8235;52.198;9.904;2023-10-31T09:57:14;99092.00;;;11.81;87.71
16255;BME280;8235;52.198;9.904;2023-10-31T09:59:42;99093.22;;;11.87;86.25
16255;BME280;8235;52.198;9.904;2023-10-31T10:02:08;99094.50;;;11.93;85.22
16255;BME280;8235;52.198;9.904;2023-10-31T10:04:37;99104.88;;;11.96;85.05
16255;BME280;8235;52.198;9.904;2023-10-31T10:07:04;99100.94;;;12.00;84.83
16255;BME280;8235;52.198;9.904;2023-10-31T10:09:31;99109.34;;;12.05;83.61
16255;BME280;8235;52.198;9.904;2023-10-31T10:11:59;99109.06;;;12.08;82.36
16255;BME280;8235;52.198;9.904;2023-10-31T10:14:26;99122.81;;;12.13;82.57
16255;BME280;8235;52.198;9.904;2023-10-31T10:16:53;99120.16;;;12.13;81.67
16255;BME280;8235;52.198;9.904;2023-10-31T10:19:21;99138.97;;;12.11;82.31
16255;BME280;8235;52.198;9.904;2023-10-31T10:21:50;99141.09;;;12.08;82.21
16255;BME280;8235;52.198;9.904;2023-10-31T10:24:18;99162.44;;;12.08;82.43
16255;BME280;8235;52.198;9.904;2023-10-31T10:26:45;99163.00;;;12.11;82.69
16255;BME280;8235;52.198;9.904;2023-10-31T10:29:12;99165.53;;;12.13;82.27
16255;BME280;8235;52.198;9.904;2023-10-31T10:31:38;99158.22;;;12.15;82.39
16255;BME280;8235;52.198;9.904;2023-10-31T10:34:06;99177.88;;;12.14;82.23
16255;BME280;8235;52.198;9.904;2023-10-31T10:36:33;99176.19;;;12.13;82.47
16255;BME280;8235;52.198;9.904;2023-10-31T10:39:02;99180.13;;;12.09;82.60
16255;BME280;8235;52.198;9.904;2023-10-31T10:41:29;99181.81;;;12.10;83.22
16255;BME280;8235;52.198;9.904;2023-10-31T10:44:04;99177.47;;;12.09;83.09
16255;BME280;8235;52.198;9.904;2023-10-31T10:46:33;99188.97;;;12.09;83.05
16255;BME280;8235;52.198;9.904;2023-10-31T10:49:03;99184.34;;;12.11;83.28
16255;BME280;8235;52.198;9.904;2023-10-31T10:51:40;99180.81;;;12.11;82.40
16255;BME280;8235;52.198;9.904;2023-10-31T10:54:14;99179.84;;;12.12;82.85
16255;BME280;8235;52.198;9.904;2023-10-31T10:56:46;99187.56;;;12.15;82.53
16255;BME280;8235;52.198;9.904;2023-10-31T10:59:14;99173.78;;;12.20;82.69
16255;BME280;8235;52.198;9.904;2023-10-31T11:01:45;99172.22;;;12.27;82.58
16255;BME280;8235;52.198;9.904;2023-10-31T11:04:14;99167.16;;;12.33;82.28
16255;BME280;8235;52.198;9.904;2023-10-31T11:06:41;99179.53;;;12.34;81.06
16255;BME280;8235;52.198;9.904;2023-10-31T11:09:09;99190.88;;;12.36;81.54
16255;BME280;8235;52.198;9.904;2023-10-31T11:11:37;99186.25;;;12.38;80.39
16255;BME280;8235;52.198;9.904;2023-10-31T11:14:04;99181.75;;;12.39;81.05
16255;BME280;8235;52.198;9.904;2023-10-31T11:16:35;99186.94;;;12.40;80.87
16255;BME280;8235;52.198;9.904;2023-10-31T11:19:04;99186.94;;;12.40;81.34
16255;BME280;8235;52.198;9.904;2023-10-31T11:21:31;99158.28;;;12.42;81.47
16255;BME280;8235;52.198;9.904;2023-10-31T11:24:01;99189.63;;;12.40;80.68
16255;BME280;8235;52.198;9.904;2023-10-31T11:26:30;99194.81;;;12.42;81.26
16255;BME280;8235;52.198;9.904;2023-10-31T11:29:03;99192.97;;;12.42;81.50
16255;BME280;8235;52.198;9.904;2023-10-31T11:31:30;99194.66;;;12.43;81.95
16255;BME280;8235;52.198;9.904;2023-10-31T11:33:57;99191.16;;;12.43;81.74
16255;BME280;8235;52.198;9.904;2023-10-31T11:36:23;99184.00;;;12.43;81.76
16255;BME280;8235;52.198;9.904;2023-10-31T11:39:10;99195.38;;;12.45;82.19
16255;BME280;8235;52.198;9.904;2023-10-31T11:41:39;99201.97;;;12.51;81.97
16255;BME280;8235;52.198;9.904;2023-10-31T11:44:05;99209.84;;;12.52;82.42
16255;BME280;8235;52.198;9.904;2023-10-31T11:46:32;99207.84;;;12.55;82.47
16255;BME280;8235;52.198;9.904;2023-10-31T11:48:58;99209.53;;;12.56;82.53
16255;BME280;8235;52.198;9.904;2023-10-31T11:51:27;99204.50;;;12.52;83.13
16255;BME280;8235;52.198;9.904;2023-10-31T11:53:53;99212.66;;;12.51;83.23
16255;BME280;8235;52.198;9.904;2023-10-31T11:56:20;99209.16;;;12.50;83.22
16255;BME280;8235;52.198;9.904;2023-10-31T11:58:56;99220.81;;;12.49;83.68
16255;BME280;8235;52.198;9.904;2023-10-31T12:01:23;99227.13;;;12.48;84.41
16255;BME280;8235;52.198;9.904;2023-10-31T12:03:49;99213.78;;;12.48;83.93
16255;BME280;8235;52.198;9.904;2023-10-31T12:06:17;99220.81;;;12.49;84.84
16255;BME280;8235;52.198;9.904;2023-10-31T12:08:45;99223.88;;;12.55;85.13
16255;BME280;8235;52.198;9.904;2023-10-31T12:11:14;99229.78;;;12.58;85.09
16255;BME280;8235;52.198;9.904;2023-10-31T12:13:52;99227.78;;;12.60;84.44
16255;BME280;8235;52.198;9.904;2023-10-31T12:16:23;99246.22;;;12.63;85.22
16255;BME280;8235;52.198;9.904;2023-10-31T12:18:54;99248.31;;;12.69;84.84
16255;BME280;8235;52.198;9.904;2023-10-31T12:21:34;99251.69;;;12.71;85.05
16255;BME280;8235;52.198;9.904;2023-10-31T12:24:03;99240.53;;;12.76;84.61
16255;BME280;8235;52.198;9.904;2023-10-31T12:26:32;99244.66;;;12.70;84.77
16255;BME280;8235;52.198;9.904;2023-10-31T12:29:06;99245.19;;;12.74;85.11
16255;BME280;8235;52.198;9.904;2023-10-31T12:31:34;99263.75;;;12.75;85.49
16255;BME280;8235;52.198;9.904;2023-10-31T12:34:04;99247.56;;;12.77;85.03
16255;BME280;8235;52.198;9.904;2023-10-31T12:36:31;99250.53;;;12.74;84.80
16255;BME280;8235;52.198;9.904;2023-10-31T12:38:57;99249.69;;;12.73;85.78
16255;BME280;8235;52.198;9.904;2023-10-31T12:41:24;99249.00;;;12.71;84.66
16255;BME280;8235;52.198;9.904;2023-10-31T12:43:51;99255.34;;;12.70;84.52
16255;BME280;8235;52.198;9.904;2023-10-31T12:46:27;99257.59;;;12.65;84.65
16255;BME280;8235;52.198;9.904;2023-10-31T12:48:55;99257.47;;;12.67;85.55
16255;BME280;8235;52.198;9.904;2023-10-31T12:51:22;99256.75;;;12.65;85.44
16255;BME280;8235;52.198;9.904;2023-10-31T12:53:49;99277.13;;;12.66;85.22
16255;BME280;8235;52.198;9.904;2023-10-31T12:56:39;99266.44;;;12.66;84.49
16255;BME280;8235;52.198;9.904;2023-10-31T12:59:06;99264.63;;;12.66;84.86
16255;BME280;8235;52.198;9.904;2023-10-31T13:01:35;99267.25;;;12.76;85.38
16255;BME280;8235;52.198;9.904;2023-10-31T13:04:04;99272.03;;;12.82;84.37
16255;BME280;8235;52.198;9.904;2023-10-31T13:06:30;99274.97;;;12.89;85.03
16255;BME280;8235;52.198;9.904;2023-10-31T13:08:58;99280.56;;;12.95;84.60